Terminal Aerodrome Forecast
Issued by NWS

Home | Current Version | Previous Version | Text Only | Print | Product List | Glossary On
Versions: 1 2 3 4 5 6 7 8 9 10 11 12 13 14 15 16 17 18 19 20
000
FTUS41 KPBZ 201100 RRA
TAFDUJ
TAF
KDUJ 201153Z 2012/2112 15008KT P6SM BKN040
     FM201500 18010G20KT P6SM BKN040
     FM210000 17010KT P6SM BKN100 BKN250
     FM210900 19010KT P6SM -SHRA BKN030=

USA.gov is the U.S. government's official web portal to all federal, state and local government web resources and services.